Terminal Aerodrome Forecast
Issued by NWS Upton, NY

Home | Current Version | Previous Version | Text Only | Print | Product List | Glossary On
Versions: 1 2 3 4 5 6 7 8 9 10 11 12 13 14 15 16 17 18 19 20 21 22 23 24 25 26 27 28 29 30
000
FTUS41 KOKX 260200 AAA
TAFISP
TAF AMD
KISP 260204Z 2602/2624 23012G18KT P6SM SCT050
     FM260500 27012KT P6SM BKN050
     FM260900 29012G18KT P6SM SCT050
     FM261500 30018G30KT P6SM SCT050
     FM262200 30014G22KT P6SM FEW050=

USA.gov is the U.S. government's official web portal to all federal, state and local government web resources and services.